Aérodrome :
LOGIN :

S'inscrire | Disclaimer

   EN    FR    IT 

 










Légende :    VFR   VFR Marginal   IFR   IFR Intensif   IFR Très Intensif
Visi : 
Plafond : 
>= 8 km
>= 3000ft
5 à 8 km
1000 à 3000 ft
1500m à 5 km
500 à 1000 ft
800 à 1500m
200 à 500 ft
< 800m
< 200 ft
Symboles :   Orages  Brouillard  Fortes neiges  Fortes précipitations  Vent > 20 kt
SIGMETs :   Divers  Orages  Givrage  Turbulence  Onde Orograph.  Cendres Volcan.







- Altitude de l'aérodrome : 416 ft
- Code IATA : OVD


LEAS - Asturias

DERNIER METAR :
  • 281130Z 29021KT 260V320 9999 SCT030TCU BKN050 19/15 Q1006 TEMPO 3000 SHRA

METARs EXPIRÉS :
  • 281100Z 28018G28KT 250V320 9999 SCT035TCU BKN048 20/12 Q1006 TEMPO 3000 SHRA
  • 281030Z 25014KT 200V300 9999 SCT035TCU SCT050 21/13 Q1006 TEMPO SHRA SCT030CB
  • 281000Z 26011KT 230V330 9999 -DZ SCT030TCU BKN055 19/13 Q1006 TEMPO SHRA SCT030CB
  • 280930Z 29021KT 250V320 9999 -DZ SCT030TCU BKN040 16/14 Q1006 TEMPO SHRA SCT030CB
  • 280900Z 26015KT 230V290 9999 SCT030TCU BKN050 20/12 Q1005 TEMPO SHRA SCT030CB

TAF TAF LEAS
Valide du 28 à 09h jusqu'au 29 à 09h UTC


280800Z 2809/2909 28015G25KT 8000 SCT020 BKN035 TX20/2809Z TN14/2903Z
TEMPO 2809/2821 29020G35KT
TEMPO 2809/2818 32025G44KT
PROB40
TEMPO 2809/2909 3000 RA SHRA SCT030TCU
PROB40
TEMPO 2809/2818 3000 TSRA BKN014 SCT030CB
Pas de NOTAMs connus pour ce terrain.
1 SIGMET publié pour la FIR Madrid (LECM) :
 
Orages noyés dans la masse
LECM SIGMET 4 VALID 281046/281200 LEVA
LECM MADRID FIR/UIR EMBD TS FCST N OF LINE N43 W00420 - N4220 W00050 TOP FL320 MOV NE NC=



MET'MAP, la Météo Aéronautique d'un coup d'oeil ! - Copyright ORBIFLY Décembre 2007 - Disclaimer

ORBIFLY MET'MAP TEAM :

Programmation & Développement : Alexandra Zaïnal
Conception & Développement : Baudouin d'Aumeries
Co-Programmation & Développement : Marc-Olivier Méhu
Soutien technique & logistique : Manuel Goepfert

Contact : metmap@orbifly.com




SOURCES & CREDITS :

   NOAA